Time;durP1;ratioP1;P1;durP2;ratioP2;P2;SDS_P1;SDS_P2;PMS_P1;PMS_P2;Temp;Humidity;BMP_temperature;BMP_pressure;BME280_temperature;BME280_humidity;BME280_pressure;Samples;Min_cycle;Max_cycle;Signal;HPM_P1;HPM_P2
2021/12/17 00:04:28;;;;;;;4.15;1.65;;;;;;;;;;5052634;28;20054;-36
2021/12/17 00:06:54;;;;;;;3.55;1.80;;;;;;;;;;5052372;28;20040;-36
2021/12/17 00:09:19;;;;;;;2.50;1.33;;;;;;;;;;5051074;28;20025;-36
2021/12/17 00:11:45;;;;;;;2.25;1.70;;;;;;;;;;5052053;28;20439;-36
2021/12/17 00:14:13;;;;;;;3.60;1.98;;;;;;;;;;5052527;28;20379;-36
2021/12/17 00:16:40;;;;;;;4.65;2.13;;;;;;;;;;5052044;28;20024;-37
2021/12/17 00:19:29;;;;;;;2.42;1.10;;;;;;;;;;5052177;28;20037;-36
2021/12/17 00:49:04;;;;;;;1.98;1.45;;;;;;;;;;5050403;28;20053;-36
2021/12/17 00:53:57;;;;;;;2.08;1.55;;;;;;;;;;5051476;28;20502;-36
2021/12/17 00:56:23;;;;;;;2.78;2.10;;;;;;;;;;5050200;28;20112;-36
2021/12/17 00:58:49;;;;;;;3.00;1.42;;;;;;;;;;5051469;28;20074;-35
2021/12/17 01:01:14;;;;;;;2.63;1.27;;;;;;;;;;5050128;28;20017;-36
2021/12/17 01:03:40;;;;;;;2.05;1.77;;;;;;;;;;5051268;28;20084;-35
2021/12/17 01:06:07;;;;;;;2.95;1.65;;;;;;;;;;5050087;28;20467;-35
2021/12/17 01:08:33;;;;;;;2.15;1.30;;;;;;;;;;5049927;28;20187;-36
2021/12/17 01:11:01;;;;;;;4.15;2.30;;;;;;;;;;5050079;28;20033;-36
2021/12/17 01:13:29;;;;;;;2.53;1.67;;;;;;;;;;5051429;28;20048;-35
2021/12/17 01:16:30;;;;;;;4.55;2.55;;;;;;;;;;5028849;28;20022;-36
2021/12/17 01:21:53;;;;;;;4.45;1.88;;;;;;;;;;5049857;28;20060;-36
2021/12/17 01:24:48;;;;;;;5.30;2.47;;;;;;;;;;5049851;28;20546;-36
2021/12/17 01:36:12;;;;;;;3.47;2.08;;;;;;;;;;5049695;28;20025;-36
2021/12/17 01:41:47;;;;;;;4.25;2.58;;;;;;;;;;5049791;28;20545;-35
2021/12/17 01:44:12;;;;;;;3.05;1.85;;;;;;;;;;5049501;28;20037;-36
2021/12/17 01:46:38;;;;;;;2.58;2.30;;;;;;;;;;5049645;28;20017;-35
2021/12/17 01:59:18;;;;;;;3.70;2.55;;;;;;;;;;5050893;28;20525;-35
2021/12/17 01:59:45;;;;;;;2.72;2.00;;;;;;;;;;5049486;28;20048;-36
2021/12/17 02:02:11;;;;;;;5.35;2.38;;;;;;;;;;5049531;28;20541;-36
2021/12/17 02:04:37;;;;;;;5.85;2.72;;;;;;;;;;5050842;28;20029;-36
2021/12/17 02:07:03;;;;;;;2.72;2.20;;;;;;;;;;5053332;28;20018;-36
2021/12/17 02:20:13;;;;;;;3.97;2.13;;;;;;;;;;5042559;28;20037;-36
2021/12/17 02:33:24;;;;;;;7.05;2.20;;;;;;;;;;5052787;28;20067;-36
2021/12/17 02:35:50;;;;;;;7.50;2.17;;;;;;;;;;5053984;28;20021;-36
2021/12/17 02:38:17;;;;;;;3.05;1.90;;;;;;;;;;5052620;28;20029;-35
2021/12/17 02:46:45;;;;;;;3.33;2.03;;;;;;;;;;5052505;28;20384;-36
2021/12/17 02:49:11;;;;;;;3.65;1.92;;;;;;;;;;5052595;28;20067;-36
2021/12/17 02:51:37;;;;;;;3.47;2.22;;;;;;;;;;5052386;28;20033;-36
2021/12/17 02:54:03;;;;;;;3.97;2.35;;;;;;;;;;5052427;28;20360;-35
2021/12/17 02:56:28;;;;;;;4.40;2.30;;;;;;;;;;5052401;28;20021;-36
2021/12/17 02:58:54;;;;;;;3.20;2.08;;;;;;;;;;5052357;28;20253;-36
2021/12/17 03:01:20;;;;;;;4.03;2.63;;;;;;;;;;5053653;28;20033;-36
2021/12/17 03:03:48;;;;;;;3.10;2.20;;;;;;;;;;5052266;28;20029;-36
2021/12/17 03:06:13;;;;;;;3.78;2.03;;;;;;;;;;5053804;28;20480;-36
2021/12/17 03:08:39;;;;;;;2.33;1.90;;;;;;;;;;5052129;28;20171;-35
2021/12/17 03:11:04;;;;;;;5.35;1.55;;;;;;;;;;5053751;28;20143;-36
2021/12/17 03:13:33;;;;;;;4.28;1.88;;;;;;;;;;5051969;28;20052;-36
2021/12/17 03:24:06;;;;;;;4.65;2.45;;;;;;;;;;5051954;28;20029;-36
2021/12/17 03:26:32;;;;;;;4.95;2.28;;;;;;;;;;5051761;28;20029;-35
2021/12/17 03:28:59;;;;;;;7.07;2.58;;;;;;;;;;5051718;28;20029;-36
2021/12/17 03:31:28;;;;;;;4.40;2.55;;;;;;;;;;5051713;28;20542;-36
2021/12/17 03:34:04;;;;;;;3.63;2.08;;;;;;;;;;5051803;28;20036;-36
2021/12/17 03:36:31;;;;;;;6.85;2.22;;;;;;;;;;5051541;28;20033;-36
2021/12/17 03:38:57;;;;;;;4.70;1.83;;;;;;;;;;5051582;28;20421;-36
2021/12/17 03:41:28;;;;;;;5.25;2.33;;;;;;;;;;5051648;28;20544;-36
2021/12/17 03:43:57;;;;;;;3.42;1.95;;;;;;;;;;5051480;28;20501;-35
2021/12/17 03:46:37;;;;;;;4.10;2.95;;;;;;;;;;5051445;28;20028;-35
2021/12/17 03:49:03;;;;;;;3.65;2.63;;;;;;;;;;5051496;28;20387;-36
2021/12/17 03:51:29;;;;;;;6.03;2.95;;;;;;;;;;5052728;28;20688;-36
2021/12/17 03:53:58;;;;;;;4.32;2.30;;;;;;;;;;5052973;28;20430;-36
2021/12/17 03:56:27;;;;;;;3.20;1.70;;;;;;;;;;5051302;28;20021;-36
2021/12/17 03:58:54;;;;;;;3.15;1.80;;;;;;;;;;5051100;28;20037;-36
2021/12/17 04:01:21;;;;;;;5.10;1.40;;;;;;;;;;5051328;28;20017;-36
2021/12/17 04:03:47;;;;;;;2.78;1.75;;;;;;;;;;5051402;28;20044;-36
2021/12/17 04:06:25;;;;;;;4.72;2.78;;;;;;;;;;5051100;28;20116;-36
2021/12/17 04:09:09;;;;;;;5.78;2.65;;;;;;;;;;5052484;28;20091;-36
2021/12/17 04:11:50;;;;;;;3.00;1.92;;;;;;;;;;5050838;28;20427;-36
2021/12/17 04:14:33;;;;;;;4.53;2.75;;;;;;;;;;5050967;28;20021;-35
2021/12/17 04:17:03;;;;;;;3.63;2.17;;;;;;;;;;5050958;28;20033;-36
2021/12/17 04:19:29;;;;;;;7.07;2.40;;;;;;;;;;5050844;28;20036;-36
2021/12/17 04:21:55;;;;;;;4.57;2.05;;;;;;;;;;5050855;28;20033;-35
2021/12/17 04:24:20;;;;;;;3.80;2.40;;;;;;;;;;5050784;28;20009;-36
2021/12/17 04:26:46;;;;;;;3.28;2.35;;;;;;;;;;5050596;28;20064;-36
2021/12/17 04:29:20;;;;;;;6.03;2.47;;;;;;;;;;5050372;28;20481;-36
2021/12/17 04:31:52;;;;;;;5.93;3.10;;;;;;;;;;5050455;28;20475;-35
2021/12/17 04:34:18;;;;;;;5.05;2.97;;;;;;;;;;5050504;28;20438;-36
2021/12/17 04:36:46;;;;;;;5.30;2.95;;;;;;;;;;5050457;28;20029;-35
2021/12/17 04:39:21;;;;;;;3.88;2.20;;;;;;;;;;5050257;28;20072;-36
2021/12/17 04:46:51;;;;;;;5.20;2.95;;;;;;;;;;5050279;28;20066;-36
2021/12/17 04:59:50;;;;;;;4.90;2.92;;;;;;;;;;5050155;28;20059;-36
2021/12/17 05:02:16;;;;;;;5.88;2.78;;;;;;;;;;5050109;28;20060;-36
2021/12/17 05:04:52;;;;;;;5.18;3.25;;;;;;;;;;5050072;28;20028;-36
2021/12/17 05:07:18;;;;;;;3.25;1.95;;;;;;;;;;5050135;28;20041;-35
2021/12/17 05:20:43;;;;;;;3.58;2.45;;;;;;;;;;5050052;28;20031;-36
2021/12/17 05:23:10;;;;;;;2.40;1.80;;;;;;;;;;5049952;28;20029;-36
2021/12/17 05:25:35;;;;;;;2.20;1.75;;;;;;;;;;5049785;28;20494;-36
2021/12/17 05:28:02;;;;;;;3.97;1.92;;;;;;;;;;5049987;28;20017;-36
2021/12/17 05:30:32;;;;;;;3.15;1.98;;;;;;;;;;5049742;28;20033;-35
2021/12/17 05:32:58;;;;;;;4.25;2.15;;;;;;;;;;5049777;28;20053;-36
2021/12/17 05:35:26;;;;;;;5.72;3.10;;;;;;;;;;5049884;28;20398;-36
2021/12/17 05:37:52;;;;;;;2.97;1.65;;;;;;;;;;5049671;28;20029;-35
2021/12/17 05:40:18;;;;;;;2.95;1.80;;;;;;;;;;5052184;28;20132;-36
2021/12/17 05:42:47;;;;;;;3.72;1.77;;;;;;;;;;5053765;28;20456;-36
2021/12/17 05:45:31;;;;;;;6.88;2.10;;;;;;;;;;5053744;28;20087;-36
2021/12/17 05:47:57;;;;;;;4.63;2.20;;;;;;;;;;5053764;28;20075;-36
2021/12/17 05:50:22;;;;;;;2.50;1.88;;;;;;;;;;5053789;28;20029;-36
2021/12/17 05:52:49;;;;;;;2.88;2.00;;;;;;;;;;5054747;28;20033;-36
2021/12/17 05:55:15;;;;;;;2.67;1.80;;;;;;;;;;5053523;28;20082;-36
2021/12/17 05:57:41;;;;;;;4.28;2.00;;;;;;;;;;5053492;28;20032;-36
2021/12/17 06:00:08;;;;;;;3.47;2.30;;;;;;;;;;5053485;28;20021;-36
2021/12/17 06:02:42;;;;;;;3.97;2.72;;;;;;;;;;5053586;28;20049;-36
2021/12/17 06:05:10;;;;;;;2.97;2.10;;;;;;;;;;5053401;28;20029;-36
2021/12/17 06:07:39;;;;;;;3.08;2.03;;;;;;;;;;5053202;28;20493;-36
2021/12/17 06:10:06;;;;;;;5.57;3.05;;;;;;;;;;5054929;28;20104;-36
2021/12/17 06:12:39;;;;;;;6.40;1.83;;;;;;;;;;5053034;28;20078;-36
2021/12/17 06:15:07;;;;;;;3.35;2.22;;;;;;;;;;5053266;28;20422;-36
2021/12/17 06:17:32;;;;;;;4.97;1.95;;;;;;;;;;5053118;28;20020;-36
2021/12/17 06:19:58;;;;;;;5.60;2.38;;;;;;;;;;5053174;28;20222;-35
2021/12/17 06:22:24;;;;;;;4.47;2.53;;;;;;;;;;5054427;28;20043;-36
2021/12/17 06:24:59;;;;;;;5.93;2.25;;;;;;;;;;5053006;28;20033;-36
2021/12/17 06:27:24;;;;;;;3.92;2.08;;;;;;;;;;5052977;28;20033;-36
2021/12/17 06:29:50;;;;;;;4.55;2.20;;;;;;;;;;5052892;28;20024;-36
2021/12/17 06:32:16;;;;;;;3.80;2.17;;;;;;;;;;5052901;28;20040;-35
2021/12/17 06:34:43;;;;;;;3.60;2.17;;;;;;;;;;5052740;28;20017;-35
2021/12/17 06:37:08;;;;;;;3.22;2.17;;;;;;;;;;5052811;28;20475;-36
2021/12/17 06:39:34;;;;;;;4.15;2.35;;;;;;;;;;5052562;28;20061;-36
2021/12/17 06:42:00;;;;;;;3.70;2.17;;;;;;;;;;5052695;28;20498;-37
2021/12/17 06:44:26;;;;;;;3.40;1.70;;;;;;;;;;5052667;28;20686;-36
2021/12/17 06:49:27;;;;;;;6.53;2.92;;;;;;;;;;5052575;28;20402;-36
2021/12/17 07:10:15;;;;;;;2.25;1.85;;;;;;;;;;5052447;28;20052;-39
2021/12/17 07:32:30;;;;;;;4.65;1.48;;;;;;;;;;5052959;28;20044;-36
2021/12/17 07:39:54;;;;;;;3.17;1.92;;;;;;;;;;5051445;28;20052;-36
2021/12/17 07:42:26;;;;;;;3.33;1.65;;;;;;;;;;5051565;28;20043;-36
2021/12/17 07:44:54;;;;;;;5.43;2.70;;;;;;;;;;5053019;28;20052;-36
2021/12/17 07:47:38;;;;;;;3.22;2.13;;;;;;;;;;5051482;28;20029;-36
2021/12/17 07:50:21;;;;;;;3.95;2.17;;;;;;;;;;5053427;28;20516;-36
2021/12/17 07:53:14;;;;;;;3.13;2.30;;;;;;;;;;5051386;28;20041;-35
2021/12/17 07:55:47;;;;;;;;;;;;;;;;;;5051694;28;20037;-35
2021/12/17 07:58:19;;;;;;;3.25;1.75;;;;;;;;;;5052652;28;19963;-35
2021/12/17 08:00:44;;;;;;;4.90;2.40;;;;;;;;;;5051102;28;20065;-35
2021/12/17 08:03:11;;;;;;;3.95;2.00;;;;;;;;;;5050650;28;20467;-36
2021/12/17 08:05:49;;;;;;;1.50;1.38;;;;;;;;;;5051094;28;20040;-36
2021/12/17 08:08:14;;;;;;;5.43;2.53;;;;;;;;;;5051217;28;20655;-36
2021/12/17 08:10:42;;;;;;;1.83;1.52;;;;;;;;;;5051024;28;20032;-36
2021/12/17 08:13:12;;;;;;;2.25;1.95;;;;;;;;;;5050991;28;20068;-36
2021/12/17 08:15:45;;;;;;;3.33;2.20;;;;;;;;;;5050777;28;20024;-36
2021/12/17 08:18:25;;;;;;;3.03;1.67;;;;;;;;;;5050952;28;20479;-35
2021/12/17 08:26:55;;;;;;;2.45;1.50;;;;;;;;;;5050777;28;20037;-36
2021/12/17 08:31:54;;;;;;;2.75;1.92;;;;;;;;;;5050542;28;20103;-36
2021/12/17 08:34:26;;;;;;;3.40;1.83;;;;;;;;;;5050621;28;20025;-36
2021/12/17 08:36:53;;;;;;;2.45;1.52;;;;;;;;;;5050503;28;20487;-36
2021/12/17 08:39:19;;;;;;;2.70;1.35;;;;;;;;;;5050376;28;20052;-36
2021/12/17 08:41:51;;;;;;;4.13;2.22;;;;;;;;;;5051798;28;20060;-36
2021/12/17 08:44:18;;;;;;;3.13;1.75;;;;;;;;;;5050386;28;20039;-36
2021/12/17 08:47:05;;;;;;;2.40;1.35;;;;;;;;;;5051642;28;20658;-36
2021/12/17 08:49:34;;;;;;;2.47;1.75;;;;;;;;;;5050318;28;20035;-36
2021/12/17 08:52:16;;;;;;;;;;;;;;;;;;5050758;28;20029;-36
2021/12/17 08:54:42;;;;;;;4.72;2.08;;;;;;;;;;5050188;28;19915;-35
2021/12/17 08:57:09;;;;;;;2.50;1.40;;;;;;;;;;5050273;28;20020;-36
2021/12/17 08:59:37;;;;;;;2.22;1.45;;;;;;;;;;5050173;28;20420;-35
2021/12/17 09:02:12;;;;;;;2.20;1.33;;;;;;;;;;5051527;28;20024;-36
2021/12/17 09:04:43;;;;;;;2.28;1.50;;;;;;;;;;5049984;28;20033;-36
2021/12/17 09:07:12;;;;;;;2.78;1.25;;;;;;;;;;5050162;28;20564;-36
2021/12/17 09:09:39;;;;;;;2.28;1.27;;;;;;;;;;5050070;28;20029;-36
2021/12/17 09:12:17;;;;;;;2.15;1.38;;;;;;;;;;5050019;28;20578;-36
2021/12/17 09:14:43;;;;;;;2.08;1.20;;;;;;;;;;5049933;28;20028;-36
2021/12/17 09:17:29;;;;;;;5.90;1.55;;;;;;;;;;5051257;28;20079;-36
2021/12/17 09:19:54;;;;;;;3.97;1.50;;;;;;;;;;5049927;28;20395;-35
2021/12/17 09:22:22;;;;;;;2.08;1.48;;;;;;;;;;5050068;28;20494;-36
2021/12/17 09:24:51;;;;;;;2.72;1.10;;;;;;;;;;5051055;28;20103;-36
2021/12/17 09:27:17;;;;;;;1.88;1.13;;;;;;;;;;5051517;28;20133;-35
2021/12/17 09:30:13;;;;;;;2.35;1.42;;;;;;;;;;5049953;28;20033;-36
2021/12/17 09:32:39;;;;;;;1.73;0.90;;;;;;;;;;5051212;28;20414;-35
2021/12/17 09:35:06;;;;;;;2.45;1.23;;;;;;;;;;5051366;28;20028;-35
2021/12/17 09:37:31;;;;;;;2.00;1.17;;;;;;;;;;5051153;28;20115;-36
2021/12/17 09:39:57;;;;;;;0.70;0.70;;;;;;;;;;5050810;28;20144;-36
2021/12/17 09:42:24;;;;;;;2.28;1.42;;;;;;;;;;5050996;28;20076;-36
2021/12/17 09:44:51;;;;;;;1.73;1.23;;;;;;;;;;5051199;28;20119;-36
2021/12/17 09:47:17;;;;;;;1.70;0.98;;;;;;;;;;5050951;28;20040;-36
2021/12/17 09:49:43;;;;;;;3.53;1.10;;;;;;;;;;5051128;28;20044;-36
2021/12/17 09:52:08;;;;;;;3.20;1.40;;;;;;;;;;5051184;28;20045;-36
2021/12/17 09:54:36;;;;;;;2.78;1.60;;;;;;;;;;5051023;28;20021;-36
2021/12/17 09:57:02;;;;;;;3.00;1.38;;;;;;;;;;5050928;28;20597;-36
2021/12/17 09:59:27;;;;;;;2.85;1.75;;;;;;;;;;5051225;28;20033;-36
2021/12/17 10:01:52;;;;;;;3.47;1.63;;;;;;;;;;5049531;28;20727;-35
2021/12/17 10:04:18;;;;;;;3.92;1.80;;;;;;;;;;5050760;28;20025;-36
2021/12/17 10:06:44;;;;;;;1.80;1.40;;;;;;;;;;5050979;28;20083;-36
2021/12/17 10:09:09;;;;;;;1.50;1.30;;;;;;;;;;5050999;28;20032;-36
2021/12/17 10:11:35;;;;;;;1.88;1.42;;;;;;;;;;5050760;28;20103;-36
2021/12/17 10:14:17;;;;;;;1.35;0.93;;;;;;;;;;5050875;28;20109;-36
2021/12/17 10:16:43;;;;;;;1.27;1.10;;;;;;;;;;5050904;28;20114;-36
2021/12/17 10:19:08;;;;;;;1.83;1.35;;;;;;;;;;5050725;28;20106;-36
2021/12/17 10:21:38;;;;;;;1.42;1.20;;;;;;;;;;5050732;28;20029;-37
2021/12/17 10:24:04;;;;;;;2.33;1.10;;;;;;;;;;5050595;28;20025;-36
2021/12/17 10:26:39;;;;;;;1.08;0.98;;;;;;;;;;5052179;28;20163;-36
2021/12/17 10:29:04;;;;;;;1.20;1.10;;;;;;;;;;5054386;28;20040;-36
2021/12/17 10:31:31;;;;;;;1.15;1.05;;;;;;;;;;5054281;28;20013;-36
2021/12/17 10:34:01;;;;;;;1.05;0.75;;;;;;;;;;5054081;28;20037;-36
2021/12/17 10:36:31;;;;;;;1.40;0.77;;;;;;;;;;5054143;28;20021;-36
2021/12/17 10:38:56;;;;;;;5.35;1.92;;;;;;;;;;5053919;28;20045;-36
2021/12/17 10:41:25;;;;;;;3.70;1.80;;;;;;;;;;5054082;28;20037;-36
2021/12/17 10:43:57;;;;;;;2.08;1.33;;;;;;;;;;5053843;28;20036;-35
2021/12/17 10:46:30;;;;;;;2.25;1.80;;;;;;;;;;5054090;28;20466;-35
2021/12/17 10:49:17;;;;;;;1.98;1.52;;;;;;;;;;5054139;28;20036;-36
2021/12/17 10:51:46;;;;;;;2.13;1.88;;;;;;;;;;5053534;28;20119;-36
2021/12/17 10:54:16;;;;;;;3.58;1.95;;;;;;;;;;5054109;28;20057;-36
2021/12/17 10:56:41;;;;;;;1.90;1.25;;;;;;;;;;5053709;28;20056;-36
2021/12/17 10:59:11;;;;;;;1.42;0.90;;;;;;;;;;5054018;28;20106;-36
2021/12/17 11:01:37;;;;;;;4.30;1.33;;;;;;;;;;5054037;28;20028;-36
2021/12/17 11:04:16;;;;;;;2.03;1.25;;;;;;;;;;5053704;28;20377;-36
2021/12/17 11:06:49;;;;;;;1.42;1.33;;;;;;;;;;5053798;28;20029;-36
2021/12/17 11:09:34;;;;;;;1.60;0.88;;;;;;;;;;5053898;28;20032;-36
2021/12/17 11:12:17;;;;;;;1.35;1.13;;;;;;;;;;5053329;28;20052;-36
2021/12/17 11:14:44;;;;;;;0.98;0.98;;;;;;;;;;5052033;28;20061;-36
2021/12/17 11:17:13;;;;;;;2.03;1.73;;;;;;;;;;5053416;28;20047;-35
2021/12/17 11:19:40;;;;;;;3.05;1.27;;;;;;;;;;5053238;28;20554;-36
2021/12/17 11:22:06;;;;;;;1.25;1.15;;;;;;;;;;5053336;28;20032;-36
2021/12/17 11:24:34;;;;;;;1.10;0.98;;;;;;;;;;5052037;28;20025;-36
2021/12/17 11:27:04;;;;;;;0.80;0.80;;;;;;;;;;5053102;28;20025;-36
2021/12/17 11:29:29;;;;;;;3.22;1.05;;;;;;;;;;5053487;28;20487;-36
2021/12/17 11:31:55;;;;;;;1.95;1.10;;;;;;;;;;5053068;28;20099;-36
2021/12/17 11:34:21;;;;;;;0.88;0.75;;;;;;;;;;5053040;28;20037;-36
2021/12/17 11:36:47;;;;;;;1.27;1.00;;;;;;;;;;5053175;28;20013;-36
2021/12/17 11:39:23;;;;;;;1.20;0.95;;;;;;;;;;5051903;28;20123;-35
2021/12/17 11:41:55;;;;;;;3.15;1.27;;;;;;;;;;5052821;28;20055;-38
2021/12/17 11:44:27;;;;;;;2.72;1.52;;;;;;;;;;5052889;28;20106;-36
2021/12/17 11:47:06;;;;;;;1.60;0.95;;;;;;;;;;5052875;28;20061;-36
2021/12/17 11:49:52;;;;;;;1.58;1.25;;;;;;;;;;5053013;28;20044;-35
2021/12/17 11:52:37;;;;;;;2.42;1.73;;;;;;;;;;5051535;28;20174;-36
2021/12/17 11:55:21;;;;;;;1.88;1.15;;;;;;;;;;5052868;28;20125;-35
2021/12/17 11:57:51;;;;;;;2.10;0.80;;;;;;;;;;5052648;28;20064;-36
2021/12/17 12:00:21;;;;;;;2.65;1.33;;;;;;;;;;5051710;28;20021;-36
2021/12/17 12:02:48;;;;;;;3.75;1.00;;;;;;;;;;5052206;28;20714;-36
2021/12/17 12:05:33;;;;;;;2.25;1.30;;;;;;;;;;5052463;28;20066;-36
2021/12/17 12:08:39;;;;;;;2.40;1.23;;;;;;;;;;5052696;28;20430;-36
2021/12/17 12:11:07;;;;;;;2.35;1.00;;;;;;;;;;5031925;28;20048;-36
2021/12/17 12:13:35;;;;;;;0.75;0.70;;;;;;;;;;5052303;28;20068;-36
2021/12/17 12:16:03;;;;;;;1.40;0.93;;;;;;;;;;5052176;28;20037;-36
2021/12/17 12:18:57;;;;;;;1.38;1.17;;;;;;;;;;5051065;28;20391;-36
2021/12/17 12:21:24;;;;;;;0.98;0.80;;;;;;;;;;5052249;28;20086;-36
2021/12/17 12:24:17;;;;;;;2.13;0.60;;;;;;;;;;5052157;28;20467;-36
2021/12/17 12:26:44;;;;;;;0.70;0.53;;;;;;;;;;5050208;28;20037;-36
2021/12/17 12:29:12;;;;;;;2.05;1.13;;;;;;;;;;5052009;28;20300;-36
2021/12/17 12:31:38;;;;;;;2.47;1.25;;;;;;;;;;5052278;28;20467;-36
2021/12/17 12:34:07;;;;;;;1.75;0.98;;;;;;;;;;5051931;28;20025;-36
2021/12/17 12:36:51;;;;;;;1.98;1.00;;;;;;;;;;5051842;28;20368;-36
2021/12/17 12:39:24;;;;;;;1.73;0.95;;;;;;;;;;5051664;28;20110;-36
2021/12/17 12:41:59;;;;;;;2.55;1.27;;;;;;;;;;5051765;28;20025;-36
2021/12/17 12:44:47;;;;;;;1.80;0.98;;;;;;;;;;5051665;28;20025;-35
2021/12/17 12:47:31;;;;;;;1.63;1.08;;;;;;;;;;5051712;28;20752;-36
2021/12/17 12:50:06;;;;;;;0.65;0.57;;;;;;;;;;5051347;28;20059;-36
2021/12/17 12:52:33;;;;;;;1.58;0.70;;;;;;;;;;5051585;28;20554;-36
2021/12/17 12:55:16;;;;;;;0.82;0.68;;;;;;;;;;5051620;28;20025;-35
2021/12/17 12:57:44;;;;;;;5.75;0.85;;;;;;;;;;5051483;28;20028;-36
2021/12/17 13:00:12;;;;;;;0.93;0.73;;;;;;;;;;5051797;28;20013;-35
2021/12/17 13:02:38;;;;;;;0.98;0.88;;;;;;;;;;5051496;28;20025;-36
2021/12/17 13:05:06;;;;;;;1.42;0.77;;;;;;;;;;5051681;28;20017;-36
2021/12/17 13:07:36;;;;;;;1.95;0.77;;;;;;;;;;5051478;28;20021;-36
2021/12/17 13:10:17;;;;;;;1.23;0.70;;;;;;;;;;5051297;28;20120;-35
2021/12/17 13:12:55;;;;;;;0.60;0.52;;;;;;;;;;5051191;28;20037;-36
2021/12/17 13:23:19;;;;;;;2.28;1.00;;;;;;;;;;5051255;28;20033;-36
2021/12/17 13:25:44;;;;;;;1.58;1.08;;;;;;;;;;5051069;28;20037;-36
2021/12/17 13:28:10;;;;;;;2.58;1.83;;;;;;;;;;5051077;28;20036;-35
2021/12/17 13:30:36;;;;;;;3.97;1.40;;;;;;;;;;5051436;28;20033;-36
2021/12/17 13:33:02;;;;;;;4.30;1.35;;;;;;;;;;5049760;28;20067;-36
2021/12/17 13:35:33;;;;;;;1.63;1.17;;;;;;;;;;5051295;28;20028;-36
2021/12/17 13:38:01;;;;;;;;;;;;;;;;;;5051455;28;20089;-36
2021/12/17 13:40:27;;;;;;;2.13;1.25;;;;;;;;;;5050888;28;20378;-36
2021/12/17 13:42:54;;;;;;;1.27;1.13;;;;;;;;;;5050972;28;20036;-36
2021/12/17 13:45:21;;;;;;;2.33;1.20;;;;;;;;;;5051002;28;20028;-36
2021/12/17 13:47:54;;;;;;;1.98;0.80;;;;;;;;;;5051274;28;20021;-36
2021/12/17 13:50:30;;;;;;;1.23;0.80;;;;;;;;;;5049647;28;20025;-36
2021/12/17 13:52:58;;;;;;;1.15;0.60;;;;;;;;;;5050854;28;20123;-35
2021/12/17 13:55:44;;;;;;;1.33;0.93;;;;;;;;;;5050963;28;20034;-36
2021/12/17 13:58:19;;;;;;;1.40;1.17;;;;;;;;;;5050571;28;20040;-36
2021/12/17 14:00:46;;;;;;;1.38;1.15;;;;;;;;;;5051158;28;20044;-36
2021/12/17 14:03:16;;;;;;;1.17;0.80;;;;;;;;;;5054856;28;20017;-36
2021/12/17 14:05:50;;;;;;;2.00;0.95;;;;;;;;;;5054933;28;20033;-36
2021/12/17 14:08:20;;;;;;;1.60;0.95;;;;;;;;;;5054771;28;20025;-36
2021/12/17 14:10:47;;;;;;;1.13;0.88;;;;;;;;;;5054836;28;20023;-36
2021/12/17 14:13:16;;;;;;;1.10;0.80;;;;;;;;;;5054605;28;20041;-35
2021/12/17 14:15:43;;;;;;;1.80;0.68;;;;;;;;;;5053189;28;20447;-36
2021/12/17 14:18:09;;;;;;;1.20;1.05;;;;;;;;;;5054481;28;20102;-36
2021/12/17 14:20:39;;;;;;;1.48;1.10;;;;;;;;;;5054793;28;20017;-36
2021/12/17 14:23:12;;;;;;;0.70;0.63;;;;;;;;;;5054306;28;20032;-35
2021/12/17 14:25:42;;;;;;;1.17;1.10;;;;;;;;;;5054395;28;20059;-36
2021/12/17 14:28:10;;;;;;;1.23;0.95;;;;;;;;;;5054576;28;20087;-36
2021/12/17 14:30:36;;;;;;;0.82;0.80;;;;;;;;;;5054461;28;20104;-36
2021/12/17 14:33:13;;;;;;;0.73;0.65;;;;;;;;;;5054045;28;20424;-36
2021/12/17 14:36:05;;;;;;;1.27;0.55;;;;;;;;;;5054194;28;20487;-36
2021/12/17 14:38:43;;;;;;;2.05;0.55;;;;;;;;;;5052083;28;20041;-36
2021/12/17 14:41:14;;;;;;;0.98;0.88;;;;;;;;;;5054407;28;20037;-36
2021/12/17 14:43:45;;;;;;;2.13;0.88;;;;;;;;;;5054044;28;20021;-36
2021/12/17 14:46:17;;;;;;;1.80;0.93;;;;;;;;;;5053919;28;20033;-36
2021/12/17 15:05:18;;;;;;;2.22;1.55;;;;;;;;;;5053989;28;20065;-36
2021/12/17 15:07:43;;;;;;;1.42;0.85;;;;;;;;;;5053473;28;20112;-36
2021/12/17 15:10:10;;;;;;;1.40;1.30;;;;;;;;;;5053620;28;20105;-36
2021/12/17 15:12:38;;;;;;;1.02;0.85;;;;;;;;;;5053649;28;20036;-36
2021/12/17 15:15:15;;;;;;;1.60;0.98;;;;;;;;;;5053309;28;20119;-36
2021/12/17 15:17:40;;;;;;;2.35;1.08;;;;;;;;;;5053427;28;20033;-37
2021/12/17 15:20:07;;;;;;;1.60;1.25;;;;;;;;;;5053375;28;20036;-36
2021/12/17 15:22:33;;;;;;;2.80;1.23;;;;;;;;;;5052358;28;20025;-36
2021/12/17 15:24:58;;;;;;;1.55;1.10;;;;;;;;;;5053210;28;20027;-36
2021/12/17 15:27:24;;;;;;;1.77;1.00;;;;;;;;;;5052347;28;20025;-36
2021/12/17 15:29:50;;;;;;;4.72;2.35;;;;;;;;;;5053300;28;20352;-36
2021/12/17 15:32:15;;;;;;;13.07;5.10;;;;;;;;;;5053050;28;20029;-36
2021/12/17 15:34:41;;;;;;;2.20;1.35;;;;;;;;;;5053160;28;20040;-36
2021/12/17 15:37:07;;;;;;;1.80;1.08;;;;;;;;;;5053026;28;20032;-36
2021/12/17 15:39:32;;;;;;;1.38;0.98;;;;;;;;;;5052898;28;20045;-36
2021/12/17 15:41:57;;;;;;;1.05;0.95;;;;;;;;;;5052892;28;20040;-36
2021/12/17 15:44:23;;;;;;;2.15;1.42;;;;;;;;;;5053166;28;20032;-36
2021/12/17 15:46:51;;;;;;;2.15;1.30;;;;;;;;;;5053118;28;20495;-36
2021/12/17 15:49:17;;;;;;;1.95;1.20;;;;;;;;;;5052825;28;20029;-36
2021/12/17 15:51:42;;;;;;;3.17;2.00;;;;;;;;;;5053048;28;20021;-35
2021/12/17 15:54:08;;;;;;;2.45;1.40;;;;;;;;;;5052919;28;20041;-36
2021/12/17 15:56:34;;;;;;;3.38;2.13;;;;;;;;;;5052621;28;20514;-36
2021/12/17 15:59:00;;;;;;;4.13;1.92;;;;;;;;;;5052556;28;20045;-36
2021/12/17 16:01:26;;;;;;;3.78;1.70;;;;;;;;;;5052662;28;20467;-37
2021/12/17 16:03:51;;;;;;;5.10;1.80;;;;;;;;;;5052482;28;20044;-36
2021/12/17 16:06:17;;;;;;;4.78;1.58;;;;;;;;;;5052834;28;20497;-36
2021/12/17 16:08:46;;;;;;;2.58;1.45;;;;;;;;;;5052379;28;20113;-36
2021/12/17 16:21:42;;;;;;;4.63;2.30;;;;;;;;;;5052291;28;20017;-36
2021/12/17 16:24:08;;;;;;;2.92;1.70;;;;;;;;;;5050365;28;20439;-35
2021/12/17 16:26:33;;;;;;;3.53;1.75;;;;;;;;;;5052428;28;20029;-36
2021/12/17 16:28:59;;;;;;;5.28;1.83;;;;;;;;;;5052017;28;20673;-36
2021/12/17 16:31:26;;;;;;;3.78;2.05;;;;;;;;;;5052121;28;20517;-36
2021/12/17 16:33:57;;;;;;;2.53;1.67;;;;;;;;;;5051740;28;20479;-36
2021/12/17 16:36:22;;;;;;;8.07;2.50;;;;;;;;;;5051956;28;20064;-36
2021/12/17 16:38:48;;;;;;;3.35;2.40;;;;;;;;;;5051643;28;20064;-36
2021/12/17 16:41:14;;;;;;;3.30;2.35;;;;;;;;;;5052165;28;20037;-36
2021/12/17 16:43:42;;;;;;;4.18;2.00;;;;;;;;;;5051798;28;20029;-36
2021/12/17 16:48:38;;;;;;;3.90;2.10;;;;;;;;;;5051781;28;20025;-36
2021/12/17 16:51:04;;;;;;;5.25;2.63;;;;;;;;;;5051656;28;20048;-36
2021/12/17 16:53:29;;;;;;;3.80;2.42;;;;;;;;;;5051774;28;20097;-36
2021/12/17 16:55:55;;;;;;;2.45;2.10;;;;;;;;;;5051571;28;20028;-36
2021/12/17 16:58:21;;;;;;;3.75;2.15;;;;;;;;;;5051538;28;20132;-36
2021/12/17 17:00:49;;;;;;;3.30;1.80;;;;;;;;;;5051644;28;20025;-36
2021/12/17 17:03:16;;;;;;;2.95;2.17;;;;;;;;;;5051381;28;20039;-36
2021/12/17 17:05:42;;;;;;;3.75;1.92;;;;;;;;;;5051507;28;20014;-36
2021/12/17 17:08:08;;;;;;;3.38;1.92;;;;;;;;;;5051345;28;20122;-36
2021/12/17 17:10:34;;;;;;;2.40;1.75;;;;;;;;;;5051700;28;20107;-36
2021/12/17 17:13:03;;;;;;;3.97;2.15;;;;;;;;;;5051256;28;20037;-36
2021/12/17 17:15:34;;;;;;;2.53;2.05;;;;;;;;;;5051286;28;20017;-36
2021/12/17 17:18:04;;;;;;;2.67;1.90;;;;;;;;;;5051258;28;20032;-36
2021/12/17 17:20:30;;;;;;;2.42;1.38;;;;;;;;;;5051261;28;20585;-36
2021/12/17 17:22:56;;;;;;;4.22;2.22;;;;;;;;;;5051452;28;20159;-36
2021/12/17 17:25:22;;;;;;;3.97;1.83;;;;;;;;;;5051224;28;20025;-35
2021/12/17 17:27:48;;;;;;;5.53;2.58;;;;;;;;;;5051192;28;20586;-36
2021/12/17 17:30:13;;;;;;;4.40;1.85;;;;;;;;;;5051130;28;20036;-36
2021/12/17 17:32:40;;;;;;;5.18;2.50;;;;;;;;;;5051111;28;20102;-36
2021/12/17 17:35:05;;;;;;;12.15;5.63;;;;;;;;;;5051058;28;20017;-36
2021/12/17 17:37:31;;;;;;;10.98;3.53;;;;;;;;;;5054828;28;20032;-36
2021/12/17 17:40:00;;;;;;;4.15;2.55;;;;;;;;;;5055080;28;20142;-36
2021/12/17 17:42:26;;;;;;;5.25;2.00;;;;;;;;;;5055223;28;20041;-36
2021/12/17 17:44:51;;;;;;;7.43;3.13;;;;;;;;;;5055084;28;20154;-36
2021/12/17 17:47:21;;;;;;;3.95;2.63;;;;;;;;;;5055452;28;20033;-36
2021/12/17 17:49:47;;;;;;;3.78;1.90;;;;;;;;;;5054982;28;20032;-36
2021/12/17 17:52:13;;;;;;;3.35;2.33;;;;;;;;;;5054957;28;20024;-36
2021/12/17 17:54:38;;;;;;;4.63;1.83;;;;;;;;;;5054933;28;20025;-36
2021/12/17 17:57:04;;;;;;;5.43;2.45;;;;;;;;;;5053675;28;20039;-36
2021/12/17 17:59:30;;;;;;;3.63;1.85;;;;;;;;;;5055041;28;20028;-36
2021/12/17 18:01:56;;;;;;;5.22;2.80;;;;;;;;;;5054854;28;20468;-36
2021/12/17 18:04:22;;;;;;;4.05;2.38;;;;;;;;;;5054833;28;20514;-36
2021/12/17 18:06:48;;;;;;;3.17;1.75;;;;;;;;;;5054714;28;20040;-36
2021/12/17 18:09:14;;;;;;;3.65;2.08;;;;;;;;;;5055034;28;20025;-36
2021/12/17 18:11:45;;;;;;;2.65;2.10;;;;;;;;;;5054599;28;20029;-36
2021/12/17 18:14:11;;;;;;;4.13;2.55;;;;;;;;;;5054555;28;20047;-36
2021/12/17 18:16:36;;;;;;;4.50;2.67;;;;;;;;;;5054658;28;20107;-36
2021/12/17 18:19:02;;;;;;;3.47;2.33;;;;;;;;;;5054415;28;20568;-36
2021/12/17 18:21:28;;;;;;;4.45;2.55;;;;;;;;;;5054543;28;20033;-36
2021/12/17 18:23:53;;;;;;;2.08;1.55;;;;;;;;;;5054386;28;20036;-36
2021/12/17 18:26:18;;;;;;;2.50;1.40;;;;;;;;;;5054365;28;20021;-36